Hypoluxo, Florida
Current Conditions -  °F | °C
As of 9:53 AM on Tuesday 21 Oct 2014 (Local Time) from KPBI Reporting Station
Overcast Overcast  
Wind Chill: 79°   Ceiling: 25000
Heat Index: 82°   Visibility: 10mi
Dew Point: 72°   Wind: 8mph
Humidity: 79%   Direction: 140°SE
Pressure: 29.96"   Gusts: NA
Location:  26.5758°N, 80.0835°W
Report Text: KPBI 211353Z 14007KT 10SM SCT037 SCT050 OVC250 26/22 A2996 RMK AO2 SLP146 CB DSNT NE-SE T02610222
Loading
Personal Weather Stations






























Interactive Weather Map New forecast layout! Learn more

10-Day Weather Forecast

Advertisements
Track Severe Weather on mobile